Time,TemperatureF,DewpointF,PressureIn,WindDirection,WindDirectionDegrees,WindSpeedMPH,WindSpeedGustMPH,Humidity,HourlyPrecipIn,Conditions,Clouds,dailyrainin,SoftwareType,DateUTC
2013-07-10 00:01:00,66.3,61.0,30.04,North,0,0.0,0.0,83,0.00,,,0.00,vanprod-2.3,2013-07-10 05:01:00,
2013-07-10 00:06:00,66.3,61.0,30.04,North,0,0.0,0.0,83,0.00,,,0.00,vanprod-2.3,2013-07-10 05:06:00,
2013-07-10 00:11:00,65.9,60.6,30.04,North,0,1.0,2.0,83,0.00,,,0.00,vanprod-2.3,2013-07-10 05:11:00,
2013-07-10 00:16:00,65.9,60.6,30.04,North,0,0.0,1.0,83,0.00,,,0.00,vanprod-2.3,2013-07-10 05:16:00,
2013-07-10 00:21:00,65.8,60.8,30.04,North,0,1.0,2.0,84,0.00,,,0.00,vanprod-2.3,2013-07-10 05:21:00,
2013-07-10 00:26:00,65.5,60.5,30.04,North,0,1.0,0.0,84,0.00,,,0.00,vanprod-2.3,2013-07-10 05:26:00,
2013-07-10 00:31:00,65.5,60.5,30.04,North,0,0.0,0.0,84,0.00,,,0.00,vanprod-2.3,2013-07-10 05:31:00,
2013-07-10 00:36:00,65.3,60.3,30.05,North,0,0.0,0.0,84,0.00,,,0.00,vanprod-2.3,2013-07-10 05:36:00,
2013-07-10 00:41:00,65.1,60.2,30.05,North,0,0.0,0.0,84,0.00,,,0.00,vanprod-2.3,2013-07-10 05:41:00,
2013-07-10 00:46:00,65.0,60.4,30.05,North,0,0.0,0.0,85,0.00,,,0.00,vanprod-2.3,2013-07-10 05:46:00,
2013-07-10 00:51:00,64.8,60.2,30.05,North,0,0.0,0.0,85,0.00,,,0.00,vanprod-2.3,2013-07-10 05:51:00,
2013-07-10 00:56:00,64.7,60.1,30.05,North,0,0.0,0.0,85,0.00,,,0.00,vanprod-2.3,2013-07-10 05:56:00,
2013-07-10 01:01:00,64.5,59.9,30.05,North,0,0.0,0.0,85,0.00,,,0.00,vanprod-2.3,2013-07-10 06:01:00,
2013-07-10 01:06:00,64.3,59.4,30.05,North,0,0.0,0.0,84,0.00,,,0.00,vanprod-2.3,2013-07-10 06:06:00,
2013-07-10 01:11:00,64.2,59.6,30.05,North,0,0.0,0.0,85,0.00,,,0.00,vanprod-2.3,2013-07-10 06:11:00,
2013-07-10 01:16:00,64.0,59.4,30.05,North,0,0.0,0.0,85,0.00,,,0.00,vanprod-2.3,2013-07-10 06:16:00,
2013-07-10 01:21:00,63.8,59.2,30.05,North,0,0.0,0.0,85,0.00,,,0.00,vanprod-2.3,2013-07-10 06:21:00,
2013-07-10 01:26:00,63.7,59.4,30.05,North,0,0.0,0.0,86,0.00,,,0.00,vanprod-2.3,2013-07-10 06:26:00,
2013-07-10 01:31:00,63.5,59.2,30.05,North,0,0.0,0.0,86,0.00,,,0.00,vanprod-2.3,2013-07-10 06:31:00,
2013-07-10 01:36:00,63.4,59.1,30.05,North,0,0.0,1.0,86,0.00,,,0.00,vanprod-2.3,2013-07-10 06:36:00,
2013-07-10 01:41:00,63.2,59.3,30.05,North,0,0.0,0.0,87,0.00,,,0.00,vanprod-2.3,2013-07-10 06:41:00,
2013-07-10 01:46:00,63.0,59.1,30.05,North,0,0.0,0.0,87,0.00,,,0.00,vanprod-2.3,2013-07-10 06:46:00,
2013-07-10 01:51:00,62.9,59.0,30.06,North,0,0.0,0.0,87,0.00,,,0.00,vanprod-2.3,2013-07-10 06:51:00,
2013-07-10 01:56:00,62.7,58.8,30.06,North,0,0.0,0.0,87,0.00,,,0.00,vanprod-2.3,2013-07-10 06:56:00,
2013-07-10 02:01:00,62.6,59.0,30.06,North,0,0.0,0.0,88,0.00,,,0.00,vanprod-2.3,2013-07-10 07:01:00,
2013-07-10 02:06:00,62.6,59.0,30.06,North,0,0.0,0.0,88,0.00,,,0.00,vanprod-2.3,2013-07-10 07:06:00,
2013-07-10 02:11:00,62.4,59.1,30.06,North,0,0.0,0.0,89,0.00,,,0.00,vanprod-2.3,2013-07-10 07:11:00,
2013-07-10 02:16:00,62.2,58.9,30.06,North,0,0.0,0.0,89,0.00,,,0.00,vanprod-2.3,2013-07-10 07:16:00,
2013-07-10 02:21:00,62.1,58.8,30.06,North,0,0.0,0.0,89,0.00,,,0.00,vanprod-2.3,2013-07-10 07:21:00,
2013-07-10 02:26:00,61.9,58.6,30.06,North,0,0.0,0.0,89,0.00,,,0.00,vanprod-2.3,2013-07-10 07:26:00,
2013-07-10 02:31:00,61.8,58.5,30.06,North,0,0.0,0.0,89,0.00,,,0.00,vanprod-2.3,2013-07-10 07:31:00,
2013-07-10 02:36:00,61.6,58.3,30.06,North,0,0.0,0.0,89,0.00,,,0.00,vanprod-2.3,2013-07-10 07:36:00,
2013-07-10 02:41:00,61.5,58.2,30.06,North,0,0.0,0.0,89,0.00,,,0.00,vanprod-2.3,2013-07-10 07:41:00,
2013-07-10 02:46:00,61.5,58.2,30.06,North,0,0.0,0.0,89,0.00,,,0.00,vanprod-2.3,2013-07-10 07:46:00,
2013-07-10 02:51:00,61.3,57.7,30.07,North,0,0.0,0.0,88,0.00,,,0.00,vanprod-2.3,2013-07-10 07:51:00,
2013-07-10 02:56:00,61.3,57.4,30.07,North,0,0.0,0.0,87,0.00,,,0.00,vanprod-2.3,2013-07-10 07:56:00,
2013-07-10 03:01:00,61.3,57.4,30.07,North,0,1.0,0.0,87,0.00,,,0.00,vanprod-2.3,2013-07-10 08:01:00,
2013-07-10 03:06:00,61.3,57.4,30.07,North,0,0.0,0.0,87,0.00,,,0.00,vanprod-2.3,2013-07-10 08:06:00,
2013-07-10 03:11:00,61.3,57.4,30.07,North,0,0.0,0.0,87,0.00,,,0.00,vanprod-2.3,2013-07-10 08:11:00,
2013-07-10 03:16:00,61.1,57.2,30.07,North,0,0.0,0.0,87,0.00,,,0.00,vanprod-2.3,2013-07-10 08:16:00,
2013-07-10 03:21:00,61.1,57.2,30.07,North,0,0.0,0.0,87,0.00,,,0.00,vanprod-2.3,2013-07-10 08:21:00,
2013-07-10 03:26:00,61.0,57.1,30.07,North,0,1.0,2.0,87,0.00,,,0.00,vanprod-2.3,2013-07-10 08:26:00,
2013-07-10 03:31:00,61.0,57.1,30.07,North,0,0.0,0.0,87,0.00,,,0.00,vanprod-2.3,2013-07-10 08:31:00,
2013-07-10 03:36:00,61.0,57.1,30.07,North,0,1.0,0.0,87,0.00,,,0.00,vanprod-2.3,2013-07-10 08:36:00,
2013-07-10 03:41:00,60.8,56.9,30.08,North,0,1.0,3.0,87,0.00,,,0.00,vanprod-2.3,2013-07-10 08:41:00,
2013-07-10 03:46:00,61.0,57.1,30.08,North,0,1.0,1.0,87,0.00,,,0.00,vanprod-2.3,2013-07-10 08:46:00,
2013-07-10 03:51:00,61.0,57.1,30.08,North,0,0.0,0.0,87,0.00,,,0.00,vanprod-2.3,2013-07-10 08:51:00,
2013-07-10 03:56:00,60.8,56.9,30.08,North,0,1.0,0.0,87,0.00,,,0.00,vanprod-2.3,2013-07-10 08:56:00,
2013-07-10 04:01:00,60.8,56.9,30.08,North,0,1.0,2.0,87,0.00,,,0.00,vanprod-2.3,2013-07-10 09:01:00,
2013-07-10 04:06:00,60.7,56.8,30.08,North,0,1.0,2.0,87,0.00,,,0.00,vanprod-2.3,2013-07-10 09:06:00,
2013-07-10 04:11:00,60.7,56.8,30.08,North,0,0.0,0.0,87,0.00,,,0.00,vanprod-2.3,2013-07-10 09:11:00,
2013-07-10 04:16:00,60.5,56.9,30.09,North,0,1.0,2.0,88,0.00,,,0.00,vanprod-2.3,2013-07-10 09:16:00,
2013-07-10 04:21:00,60.5,56.9,30.09,North,0,0.0,0.0,88,0.00,,,0.00,vanprod-2.3,2013-07-10 09:21:00,
2013-07-10 04:26:00,60.4,56.8,30.09,North,0,0.0,0.0,88,0.00,,,0.00,vanprod-2.3,2013-07-10 09:26:00,
2013-07-10 04:31:00,60.2,57.0,30.09,North,0,0.0,0.0,89,0.00,,,0.00,vanprod-2.3,2013-07-10 09:31:00,
2013-07-10 04:36:00,60.0,56.8,30.09,North,0,0.0,1.0,89,0.00,,,0.00,vanprod-2.3,2013-07-10 09:36:00,
2013-07-10 04:41:00,60.0,57.1,30.09,North,0,0.0,0.0,90,0.00,,,0.00,vanprod-2.3,2013-07-10 09:41:00,
2013-07-10 04:46:00,59.9,57.0,30.09,North,0,0.0,0.0,90,0.00,,,0.00,vanprod-2.3,2013-07-10 09:46:00,
2013-07-10 04:51:00,59.7,57.1,30.09,North,0,0.0,0.0,91,0.00,,,0.00,vanprod-2.3,2013-07-10 09:51:00,
2013-07-10 04:56:00,59.6,57.0,30.09,North,0,0.0,0.0,91,0.00,,,0.00,vanprod-2.3,2013-07-10 09:56:00,
2013-07-10 05:01:00,59.4,56.8,30.09,North,0,0.0,0.0,91,0.00,,,0.00,vanprod-2.3,2013-07-10 10:01:00,
2013-07-10 05:06:00,59.4,56.8,30.10,North,0,0.0,2.0,91,0.00,,,0.00,vanprod-2.3,2013-07-10 10:06:00,
2013-07-10 05:11:00,59.3,56.7,30.10,North,0,0.0,0.0,91,0.00,,,0.00,vanprod-2.3,2013-07-10 10:11:00,
2013-07-10 05:16:00,59.1,56.5,30.10,North,0,0.0,0.0,91,0.00,,,0.00,vanprod-2.3,2013-07-10 10:16:00,
2013-07-10 05:21:00,59.1,56.5,30.09,North,0,0.0,0.0,91,0.00,,,0.00,vanprod-2.3,2013-07-10 10:21:00,
2013-07-10 05:26:00,59.0,56.7,30.09,North,0,0.0,0.0,92,0.00,,,0.00,vanprod-2.3,2013-07-10 10:26:00,
2013-07-10 05:31:00,59.0,56.7,30.09,North,0,0.0,0.0,92,0.00,,,0.00,vanprod-2.3,2013-07-10 10:31:00,
2013-07-10 05:36:00,58.8,56.5,30.09,North,0,0.0,0.0,92,0.00,,,0.00,vanprod-2.3,2013-07-10 10:36:00,
2013-07-10 05:41:00,58.8,56.5,30.10,North,0,1.0,1.0,92,0.00,,,0.00,vanprod-2.3,2013-07-10 10:41:00,
2013-07-10 05:46:00,58.8,56.5,30.10,North,0,0.0,0.0,92,0.00,,,0.00,vanprod-2.3,2013-07-10 10:46:00,
2013-07-10 05:51:00,58.8,56.5,30.10,North,0,0.0,0.0,92,0.00,,,0.00,vanprod-2.3,2013-07-10 10:51:00,
2013-07-10 05:56:00,58.7,56.4,30.10,North,0,0.0,0.0,92,0.00,,,0.00,vanprod-2.3,2013-07-10 10:56:00,
2013-07-10 06:01:00,58.7,56.4,30.10,North,0,0.0,0.0,92,0.00,,,0.00,vanprod-2.3,2013-07-10 11:01:00,
2013-07-10 06:06:00,58.7,56.4,30.11,North,0,0.0,0.0,92,0.00,,,0.00,vanprod-2.3,2013-07-10 11:06:00,
2013-07-10 06:11:00,58.7,56.4,30.11,North,0,0.0,0.0,92,0.00,,,0.00,vanprod-2.3,2013-07-10 11:11:00,
2013-07-10 06:16:00,58.5,56.2,30.11,North,0,0.0,0.0,92,0.00,,,0.00,vanprod-2.3,2013-07-10 11:16:00,
2013-07-10 06:21:00,58.5,56.2,30.11,North,0,0.0,0.0,92,0.00,,,0.00,vanprod-2.3,2013-07-10 11:21:00,
2013-07-10 06:26:00,58.5,56.2,30.11,North,0,0.0,0.0,92,0.00,,,0.00,vanprod-2.3,2013-07-10 11:26:00,
2013-07-10 06:31:00,58.5,56.2,30.11,North,0,0.0,0.0,92,0.00,,,0.00,vanprod-2.3,2013-07-10 11:31:00,
2013-07-10 06:36:00,58.5,56.2,30.11,North,0,0.0,0.0,92,0.00,,,0.00,vanprod-2.3,2013-07-10 11:36:00,
2013-07-10 06:41:00,58.5,56.2,30.11,North,0,0.0,0.0,92,0.00,,,0.00,vanprod-2.3,2013-07-10 11:41:00,
2013-07-10 06:46:00,58.5,56.2,30.11,North,0,0.0,0.0,92,0.00,,,0.00,vanprod-2.3,2013-07-10 11:46:00,
2013-07-10 06:51:00,58.5,56.2,30.12,North,0,0.0,0.0,92,0.00,,,0.00,vanprod-2.3,2013-07-10 11:51:00,
2013-07-10 06:56:00,58.7,56.4,30.12,North,0,0.0,1.0,92,0.00,,,0.00,vanprod-2.3,2013-07-10 11:56:00,
2013-07-10 07:01:00,58.7,56.4,30.12,North,0,0.0,0.0,92,0.00,,,0.00,vanprod-2.3,2013-07-10 12:01:00,
2013-07-10 07:06:00,58.8,56.5,30.12,North,0,0.0,0.0,92,0.00,,,0.00,vanprod-2.3,2013-07-10 12:06:00,
2013-07-10 07:11:00,59.0,56.7,30.12,North,0,0.0,0.0,92,0.00,,,0.00,vanprod-2.3,2013-07-10 12:11:00,
2013-07-10 07:16:00,59.1,56.5,30.12,North,0,0.0,0.0,91,0.00,,,0.00,vanprod-2.3,2013-07-10 12:16:00,
2013-07-10 07:21:00,59.4,56.8,30.12,North,0,0.0,0.0,91,0.00,,,0.00,vanprod-2.3,2013-07-10 12:21:00,
2013-07-10 07:26:00,59.6,57.0,30.12,North,0,0.0,0.0,91,0.00,,,0.00,vanprod-2.3,2013-07-10 12:26:00,
2013-07-10 07:31:00,59.7,56.8,30.12,North,0,0.0,0.0,90,0.00,,,0.00,vanprod-2.3,2013-07-10 12:31:00,
2013-07-10 07:36:00,59.9,56.7,30.12,North,0,0.0,0.0,89,0.00,,,0.00,vanprod-2.3,2013-07-10 12:36:00,
2013-07-10 07:41:00,60.2,57.0,30.12,North,0,0.0,0.0,89,0.00,,,0.00,vanprod-2.3,2013-07-10 12:41:00,
2013-07-10 07:46:00,60.4,56.8,30.12,North,0,0.0,0.0,88,0.00,,,0.00,vanprod-2.3,2013-07-10 12:46:00,
2013-07-10 07:51:00,60.7,56.8,30.12,North,0,0.0,0.0,87,0.00,,,0.00,vanprod-2.3,2013-07-10 12:51:00,
2013-07-10 07:56:00,61.0,57.1,30.12,North,0,0.0,0.0,87,0.00,,,0.00,vanprod-2.3,2013-07-10 12:56:00,
2013-07-10 08:01:00,61.3,57.1,30.12,North,0,0.0,0.0,86,0.00,,,0.00,vanprod-2.3,2013-07-10 13:01:00,
2013-07-10 08:06:00,61.5,57.0,30.12,North,0,0.0,0.0,85,0.00,,,0.00,vanprod-2.3,2013-07-10 13:06:00,
2013-07-10 08:11:00,61.9,57.3,30.12,North,0,1.0,0.0,85,0.00,,,0.00,vanprod-2.3,2013-07-10 13:11:00,
2013-07-10 08:16:00,62.1,57.2,30.12,North,0,0.0,0.0,84,0.00,,,0.00,vanprod-2.3,2013-07-10 13:16:00,
2013-07-10 08:21:00,62.4,57.2,30.12,North,0,2.0,2.0,83,0.00,,,0.00,vanprod-2.3,2013-07-10 13:21:00,
2013-07-10 08:26:00,62.7,57.1,30.12,North,0,0.0,0.0,82,0.00,,,0.00,vanprod-2.3,2013-07-10 13:26:00,
2013-07-10 08:31:00,63.2,57.6,30.12,North,0,1.0,0.0,82,0.00,,,0.00,vanprod-2.3,2013-07-10 13:31:00,
2013-07-10 08:36:00,63.4,57.5,30.12,North,0,0.0,0.0,81,0.00,,,0.00,vanprod-2.3,2013-07-10 13:36:00,
2013-07-10 08:41:00,63.7,57.1,30.12,North,0,1.0,0.0,79,0.00,,,0.00,vanprod-2.3,2013-07-10 13:41:00,
2013-07-10 08:46:00,64.0,57.4,30.12,North,0,0.0,1.0,79,0.00,,,0.00,vanprod-2.3,2013-07-10 13:46:00,
2013-07-10 08:51:00,64.3,57.3,30.13,North,0,0.0,0.0,78,0.00,,,0.00,vanprod-2.3,2013-07-10 13:51:00,
2013-07-10 08:56:00,64.7,57.3,30.12,North,0,1.0,0.0,77,0.00,,,0.00,vanprod-2.3,2013-07-10 13:56:00,
2013-07-10 09:01:00,65.0,56.9,30.13,North,0,0.0,0.0,75,0.00,,,0.00,vanprod-2.3,2013-07-10 14:01:00,
2013-07-10 09:06:00,65.3,58.3,30.12,North,0,0.0,1.0,78,0.00,,,0.00,vanprod-2.3,2013-07-10 14:06:00,
2013-07-10 09:11:00,65.5,57.0,30.13,North,0,0.0,0.0,74,0.00,,,0.00,vanprod-2.3,2013-07-10 14:11:00,
2013-07-10 09:16:00,65.8,56.5,30.13,North,0,1.0,0.0,72,0.00,,,0.00,vanprod-2.3,2013-07-10 14:16:00,
2013-07-10 09:21:00,66.1,57.2,30.13,North,0,0.0,0.0,73,0.00,,,0.00,vanprod-2.3,2013-07-10 14:21:00,
2013-07-10 09:26:00,66.3,57.0,30.13,North,0,0.0,0.0,72,0.00,,,0.00,vanprod-2.3,2013-07-10 14:26:00,
2013-07-10 09:31:00,66.6,57.3,30.13,North,0,0.0,0.0,72,0.00,,,0.00,vanprod-2.3,2013-07-10 14:31:00,
2013-07-10 09:36:00,66.9,57.6,30.13,North,0,0.0,0.0,72,0.00,,,0.00,vanprod-2.3,2013-07-10 14:36:00,
2013-07-10 09:41:00,67.4,58.1,30.13,North,0,1.0,1.0,72,0.00,,,0.00,vanprod-2.3,2013-07-10 14:41:00,
2013-07-10 09:46:00,67.8,58.1,30.12,North,0,0.0,0.0,71,0.00,,,0.00,vanprod-2.3,2013-07-10 14:46:00,
2013-07-10 09:51:00,68.1,57.6,30.12,North,0,1.0,2.0,69,0.00,,,0.00,vanprod-2.3,2013-07-10 14:51:00,
2013-07-10 09:56:00,68.1,57.6,30.12,North,0,0.0,0.0,69,0.00,,,0.00,vanprod-2.3,2013-07-10 14:56:00,
2013-07-10 10:01:00,68.3,57.3,30.13,North,0,1.0,0.0,68,0.00,,,0.00,vanprod-2.3,2013-07-10 15:01:00,
2013-07-10 10:06:00,68.4,57.8,30.13,North,0,2.0,2.0,69,0.00,,,0.00,vanprod-2.3,2013-07-10 15:06:00,
2013-07-10 10:11:00,68.8,57.8,30.13,North,0,0.0,2.0,68,0.00,,,0.00,vanprod-2.3,2013-07-10 15:11:00,
2013-07-10 10:16:00,68.9,57.5,30.12,North,0,1.0,1.0,67,0.00,,,0.00,vanprod-2.3,2013-07-10 15:16:00,
2013-07-10 10:21:00,69.1,58.5,30.13,North,0,2.0,2.0,69,0.00,,,0.00,vanprod-2.3,2013-07-10 15:21:00,
2013-07-10 10:26:00,69.4,58.8,30.13,North,0,1.0,0.0,69,0.00,,,0.00,vanprod-2.3,2013-07-10 15:26:00,
2013-07-10 10:31:00,69.8,58.4,30.12,North,0,2.0,2.0,67,0.00,,,0.00,vanprod-2.3,2013-07-10 15:31:00,
2013-07-10 10:36:00,69.8,58.8,30.12,North,0,0.0,0.0,68,0.00,,,0.00,vanprod-2.3,2013-07-10 15:36:00,
2013-07-10 10:41:00,70.3,59.3,30.12,North,0,1.0,0.0,68,0.00,,,0.00,vanprod-2.3,2013-07-10 15:41:00,
2013-07-10 10:46:00,70.4,58.5,30.12,North,0,1.0,5.0,66,0.00,,,0.00,vanprod-2.3,2013-07-10 15:46:00,
2013-07-10 10:51:00,70.4,59.8,30.12,North,0,2.0,2.0,69,0.00,,,0.00,vanprod-2.3,2013-07-10 15:51:00,
2013-07-10 10:56:00,70.8,59.7,30.12,North,0,1.0,1.0,68,0.00,,,0.00,vanprod-2.3,2013-07-10 15:56:00,
2013-07-10 11:01:00,71.1,58.8,30.12,North,0,3.0,4.0,65,0.00,,,0.00,vanprod-2.3,2013-07-10 16:01:00,
2013-07-10 11:06:00,71.5,60.0,30.12,North,0,1.0,1.0,67,0.00,,,0.00,vanprod-2.3,2013-07-10 16:06:00,
2013-07-10 11:11:00,71.8,59.4,30.12,North,0,1.0,1.0,65,0.00,,,0.00,vanprod-2.3,2013-07-10 16:11:00,
2013-07-10 11:16:00,72.0,58.3,30.12,North,0,2.0,0.0,62,0.00,,,0.00,vanprod-2.3,2013-07-10 16:16:00,
2013-07-10 11:21:00,72.0,58.7,30.12,North,0,2.0,2.0,63,0.00,,,0.00,vanprod-2.3,2013-07-10 16:21:00,
2013-07-10 11:26:00,72.2,59.4,30.12,NNW,335,0.0,0.0,64,0.00,,,0.00,vanprod-2.3,2013-07-10 16:26:00,
2013-07-10 11:31:00,72.5,59.6,30.12,NNW,335,0.0,1.0,64,0.00,,,0.00,vanprod-2.3,2013-07-10 16:31:00,
2013-07-10 11:36:00,72.5,58.8,30.12,North,0,2.0,2.0,62,0.00,,,0.00,vanprod-2.3,2013-07-10 16:36:00,
2013-07-10 11:41:00,72.8,58.6,30.12,North,0,2.0,2.0,61,0.00,,,0.00,vanprod-2.3,2013-07-10 16:41:00,
2013-07-10 11:46:00,73.0,58.8,30.12,North,0,1.0,0.0,61,0.00,,,0.00,vanprod-2.3,2013-07-10 16:46:00,
2013-07-10 11:51:00,73.2,59.0,30.12,North,0,2.0,0.0,61,0.00,,,0.00,vanprod-2.3,2013-07-10 16:51:00,
2013-07-10 11:56:00,73.5,58.3,30.12,North,0,1.0,0.0,59,0.00,,,0.00,vanprod-2.3,2013-07-10 16:56:00,
2013-07-10 12:01:00,73.9,59.6,30.12,North,0,1.0,3.0,61,0.00,,,0.00,vanprod-2.3,2013-07-10 17:01:00,
2013-07-10 12:06:00,74.1,59.3,30.12,North,0,1.0,0.0,60,0.00,,,0.00,vanprod-2.3,2013-07-10 17:06:00,
2013-07-10 12:11:00,74.2,59.9,30.12,North,0,0.0,0.0,61,0.00,,,0.00,vanprod-2.3,2013-07-10 17:11:00,
2013-07-10 12:16:00,74.4,58.2,30.12,North,0,3.0,5.0,57,0.00,,,0.00,vanprod-2.3,2013-07-10 17:16:00,
2013-07-10 12:21:00,74.6,58.9,30.11,North,0,1.0,0.0,58,0.00,,,0.00,vanprod-2.3,2013-07-10 17:21:00,
2013-07-10 12:26:00,74.9,59.6,30.12,North,0,1.0,0.0,59,0.00,,,0.00,vanprod-2.3,2013-07-10 17:26:00,
2013-07-10 12:31:00,75.3,60.5,30.12,North,0,0.0,2.0,60,0.00,,,0.00,vanprod-2.3,2013-07-10 17:31:00,
2013-07-10 12:36:00,75.5,58.7,30.11,North,0,2.0,0.0,56,0.00,,,0.00,vanprod-2.3,2013-07-10 17:36:00,
2013-07-10 12:41:00,75.5,57.7,30.11,North,0,1.0,0.0,54,0.00,,,0.00,vanprod-2.3,2013-07-10 17:41:00,
2013-07-10 12:46:00,75.1,57.8,30.11,North,0,4.0,4.0,55,0.00,,,0.00,vanprod-2.3,2013-07-10 17:46:00,
2013-07-10 12:51:00,75.1,59.3,30.11,North,0,0.0,0.0,58,0.00,,,0.00,vanprod-2.3,2013-07-10 17:51:00,
2013-07-10 12:56:00,75.6,59.3,30.11,North,0,1.0,0.0,57,0.00,,,0.00,vanprod-2.3,2013-07-10 17:56:00,
2013-07-10 13:01:00,76.0,59.7,30.11,North,0,0.0,0.0,57,0.00,,,0.00,vanprod-2.3,2013-07-10 18:01:00,
2013-07-10 13:06:00,76.5,59.7,30.10,North,0,1.0,2.0,56,0.00,,,0.00,vanprod-2.3,2013-07-10 18:06:00,
2013-07-10 13:11:00,76.7,57.2,30.10,North,0,2.0,3.0,51,0.00,,,0.00,vanprod-2.3,2013-07-10 18:11:00,
2013-07-10 13:16:00,76.9,60.5,30.10,North,0,1.0,1.0,57,0.00,,,0.00,vanprod-2.3,2013-07-10 18:16:00,
2013-07-10 13:21:00,77.1,58.7,30.10,North,0,1.0,2.0,53,0.00,,,0.00,vanprod-2.3,2013-07-10 18:21:00,
2013-07-10 13:26:00,77.2,59.3,30.10,North,0,1.0,1.0,54,0.00,,,0.00,vanprod-2.3,2013-07-10 18:26:00,
2013-07-10 13:31:00,77.2,59.3,30.10,North,0,3.0,3.0,54,0.00,,,0.00,vanprod-2.3,2013-07-10 18:31:00,
2013-07-10 13:36:00,77.2,59.3,30.10,North,0,0.0,1.0,54,0.00,,,0.00,vanprod-2.3,2013-07-10 18:36:00,
2013-07-10 13:41:00,76.9,57.4,30.10,North,0,2.0,3.0,51,0.00,,,0.00,vanprod-2.3,2013-07-10 18:41:00,
2013-07-10 13:46:00,76.9,58.0,30.10,North,356,2.0,3.0,52,0.00,,,0.00,vanprod-2.3,2013-07-10 18:46:00,
2013-07-10 13:51:00,76.7,59.3,30.10,North,1,2.0,3.0,55,0.00,,,0.00,vanprod-2.3,2013-07-10 18:51:00,
2013-07-10 13:56:00,76.9,60.0,30.10,North,1,1.0,2.0,56,0.00,,,0.00,vanprod-2.3,2013-07-10 18:56:00,
2013-07-10 14:01:00,77.4,60.0,30.10,North,1,1.0,0.0,55,0.00,,,0.00,vanprod-2.3,2013-07-10 19:01:00,
2013-07-10 14:06:00,77.4,59.5,30.10,North,1,1.0,1.0,54,0.00,,,0.00,vanprod-2.3,2013-07-10 19:06:00,
2013-07-10 14:11:00,77.8,58.8,30.10,North,360,1.0,3.0,52,0.00,,,0.00,vanprod-2.3,2013-07-10 19:11:00,
2013-07-10 14:16:00,78.0,59.0,30.09,North,360,1.0,0.0,52,0.00,,,0.00,vanprod-2.3,2013-07-10 19:16:00,
2013-07-10 14:21:00,78.0,57.9,30.09,North,360,2.0,2.0,50,0.00,,,0.00,vanprod-2.3,2013-07-10 19:21:00,
2013-07-10 14:26:00,78.0,57.9,30.09,North,360,1.0,2.0,50,0.00,,,0.00,vanprod-2.3,2013-07-10 19:26:00,
2013-07-10 14:31:00,78.0,56.7,30.09,North,360,1.0,2.0,48,0.00,,,0.00,vanprod-2.3,2013-07-10 19:31:00,
2013-07-10 14:36:00,78.3,58.2,30.09,North,0,0.0,0.0,50,0.00,,,0.00,vanprod-2.3,2013-07-10 19:36:00,
2013-07-10 14:41:00,78.9,57.6,30.09,North,0,2.0,4.0,48,0.00,,,0.00,vanprod-2.3,2013-07-10 19:41:00,
2013-07-10 14:46:00,78.9,60.3,30.09,North,0,1.0,1.0,53,0.00,,,0.00,vanprod-2.3,2013-07-10 19:46:00,
2013-07-10 14:51:00,78.9,57.0,30.09,North,0,2.0,2.0,47,0.00,,,0.00,vanprod-2.3,2013-07-10 19:51:00,
2013-07-10 14:56:00,78.7,60.1,30.09,North,0,0.0,1.0,53,0.00,,,0.00,vanprod-2.3,2013-07-10 19:56:00,
2013-07-10 15:01:00,78.5,58.9,30.09,North,0,2.0,0.0,51,0.00,,,0.00,vanprod-2.3,2013-07-10 20:01:00,
2013-07-10 15:06:00,78.7,59.6,30.09,North,0,0.0,0.0,52,0.00,,,0.00,vanprod-2.3,2013-07-10 20:06:00,
2013-07-10 15:11:00,79.3,60.2,30.09,North,0,0.0,1.0,52,0.00,,,0.00,vanprod-2.3,2013-07-10 20:11:00,
2013-07-10 15:16:00,78.9,57.6,30.09,North,0,1.0,0.0,48,0.00,,,0.00,vanprod-2.3,2013-07-10 20:16:00,
2013-07-10 15:21:00,78.5,57.2,30.09,North,0,3.0,3.0,48,0.00,,,0.00,vanprod-2.3,2013-07-10 20:21:00,
2013-07-10 15:26:00,78.5,57.2,30.09,North,0,2.0,0.0,48,0.00,,,0.00,vanprod-2.3,2013-07-10 20:26:00,
2013-07-10 15:31:00,78.9,57.6,30.09,North,0,0.0,1.0,48,0.00,,,0.00,vanprod-2.3,2013-07-10 20:31:00,
2013-07-10 15:36:00,79.1,60.0,30.09,North,0,1.0,0.0,52,0.00,,,0.00,vanprod-2.3,2013-07-10 20:36:00,
2013-07-10 15:41:00,79.6,58.2,30.09,North,0,1.0,0.0,48,0.00,,,0.00,vanprod-2.3,2013-07-10 20:41:00,
2013-07-10 15:46:00,79.6,58.2,30.08,North,0,0.0,2.0,48,0.00,,,0.00,vanprod-2.3,2013-07-10 20:46:00,
2013-07-10 15:51:00,79.4,58.0,30.08,North,0,1.0,0.0,48,0.00,,,0.00,vanprod-2.3,2013-07-10 20:51:00,
2013-07-10 15:56:00,79.6,58.2,30.08,North,0,1.0,4.0,48,0.00,,,0.00,vanprod-2.3,2013-07-10 20:56:00,
2013-07-10 16:01:00,79.8,58.4,30.08,North,0,1.0,0.0,48,0.00,,,0.00,vanprod-2.3,2013-07-10 21:01:00,
2013-07-10 16:06:00,79.6,55.2,30.07,North,0,1.0,0.0,43,0.00,,,0.00,vanprod-2.3,2013-07-10 21:06:00,
2013-07-10 16:11:00,79.4,55.0,30.07,North,0,1.0,0.0,43,0.00,,,0.00,vanprod-2.3,2013-07-10 21:11:00,
2013-07-10 16:16:00,79.8,56.0,30.07,North,0,0.0,0.0,44,0.00,,,0.00,vanprod-2.3,2013-07-10 21:16:00,
2013-07-10 16:21:00,80.6,59.1,30.07,North,0,0.0,0.0,48,0.00,,,0.00,vanprod-2.3,2013-07-10 21:21:00,
2013-07-10 16:26:00,80.6,57.3,30.07,North,0,1.0,0.0,45,0.00,,,0.00,vanprod-2.3,2013-07-10 21:26:00,
2013-07-10 16:31:00,80.7,58.6,30.07,North,0,0.0,1.0,47,0.00,,,0.00,vanprod-2.3,2013-07-10 21:31:00,
2013-07-10 16:36:00,81.1,59.6,30.06,North,0,1.0,0.0,48,0.00,,,0.00,vanprod-2.3,2013-07-10 21:36:00,
2013-07-10 16:41:00,80.9,58.2,30.06,North,0,0.0,0.0,46,0.00,,,0.00,vanprod-2.3,2013-07-10 21:41:00,
2013-07-10 16:46:00,81.3,59.8,30.06,North,0,0.0,1.0,48,0.00,,,0.00,vanprod-2.3,2013-07-10 21:46:00,
2013-07-10 16:51:00,81.1,57.8,30.06,North,0,1.0,0.0,45,0.00,,,0.00,vanprod-2.3,2013-07-10 21:51:00,
2013-07-10 16:56:00,80.9,59.4,30.06,North,0,0.0,0.0,48,0.00,,,0.00,vanprod-2.3,2013-07-10 21:56:00,
2013-07-10 17:01:00,80.6,57.9,30.06,North,0,0.0,0.0,46,0.00,,,0.00,vanprod-2.3,2013-07-10 22:01:00,
2013-07-10 17:06:00,80.6,56.7,30.06,North,0,0.0,0.0,44,0.00,,,0.00,vanprod-2.3,2013-07-10 22:06:00,
2013-07-10 17:11:00,80.7,57.4,30.06,North,0,0.0,0.0,45,0.00,,,0.00,vanprod-2.3,2013-07-10 22:11:00,
2013-07-10 17:16:00,81.1,59.6,30.06,North,0,0.0,0.0,48,0.00,,,0.00,vanprod-2.3,2013-07-10 22:16:00,
2013-07-10 17:21:00,81.3,57.3,30.06,North,0,2.0,0.0,44,0.00,,,0.00,vanprod-2.3,2013-07-10 22:21:00,
2013-07-10 17:26:00,81.1,56.5,30.06,North,0,0.0,0.0,43,0.00,,,0.00,vanprod-2.3,2013-07-10 22:26:00,
2013-07-10 17:31:00,80.7,59.2,30.06,North,0,1.0,0.0,48,0.00,,,0.00,vanprod-2.3,2013-07-10 22:31:00,
2013-07-10 17:36:00,80.4,57.7,30.06,North,0,1.0,2.0,46,0.00,,,0.00,vanprod-2.3,2013-07-10 22:36:00,
2013-07-10 17:41:00,79.6,55.2,30.05,North,0,2.0,2.0,43,0.00,,,0.00,vanprod-2.3,2013-07-10 22:41:00,
2013-07-10 17:46:00,79.6,57.0,30.05,North,0,0.0,0.0,46,0.00,,,0.00,vanprod-2.3,2013-07-10 22:46:00,
2013-07-10 17:51:00,79.8,56.6,30.05,North,0,0.0,2.0,45,0.00,,,0.00,vanprod-2.3,2013-07-10 22:51:00,
2013-07-10 17:56:00,80.0,56.2,30.05,North,0,0.0,0.0,44,0.00,,,0.00,vanprod-2.3,2013-07-10 22:56:00,
2013-07-10 18:01:00,80.0,58.0,30.05,North,0,0.0,0.0,47,0.00,,,0.00,vanprod-2.3,2013-07-10 23:01:00,
2013-07-10 18:06:00,80.2,56.3,30.05,North,0,1.0,1.0,44,0.00,,,0.00,vanprod-2.3,2013-07-10 23:06:00,
2013-07-10 18:11:00,80.4,55.9,30.05,North,0,0.0,0.0,43,0.00,,,0.00,vanprod-2.3,2013-07-10 23:11:00,
2013-07-10 18:16:00,80.4,57.1,30.04,North,0,0.0,0.0,45,0.00,,,0.00,vanprod-2.3,2013-07-10 23:16:00,
2013-07-10 18:21:00,80.4,58.3,30.05,North,0,0.0,0.0,47,0.00,,,0.00,vanprod-2.3,2013-07-10 23:21:00,
2013-07-10 18:26:00,80.4,59.5,30.04,North,0,0.0,0.0,49,0.00,,,0.00,vanprod-2.3,2013-07-10 23:26:00,
2013-07-10 18:31:00,79.8,57.8,30.05,North,0,0.0,0.0,47,0.00,,,0.00,vanprod-2.3,2013-07-10 23:31:00,
2013-07-10 18:36:00,79.6,58.2,30.04,North,0,0.0,0.0,48,0.00,,,0.00,vanprod-2.3,2013-07-10 23:36:00,
2013-07-10 18:41:00,79.1,56.0,30.05,North,0,0.0,0.0,45,0.00,,,0.00,vanprod-2.3,2013-07-10 23:41:00,
2013-07-10 18:46:00,78.9,58.7,30.05,North,0,0.0,0.0,50,0.00,,,0.00,vanprod-2.3,2013-07-10 23:46:00,
2013-07-10 18:51:00,78.5,55.4,30.05,North,0,0.0,0.0,45,0.00,,,0.00,vanprod-2.3,2013-07-10 23:51:00,
2013-07-10 18:56:00,78.5,56.6,30.05,North,0,0.0,0.0,47,0.00,,,0.00,vanprod-2.3,2013-07-10 23:56:00,
2013-07-10 19:01:00,78.0,55.6,30.05,North,0,0.0,0.0,46,0.00,,,0.00,vanprod-2.3,2013-07-11 00:01:00,
2013-07-10 19:06:00,77.6,56.4,30.05,North,0,0.0,0.0,48,0.00,,,0.00,vanprod-2.3,2013-07-11 00:06:00,
2013-07-10 19:11:00,77.2,56.0,30.05,North,0,0.0,0.0,48,0.00,,,0.00,vanprod-2.3,2013-07-11 00:11:00,
2013-07-10 19:16:00,77.1,58.7,30.05,North,0,0.0,0.0,53,0.00,,,0.00,vanprod-2.3,2013-07-11 00:16:00,
2013-07-10 19:21:00,76.9,55.7,30.04,North,0,0.0,0.0,48,0.00,,,0.00,vanprod-2.3,2013-07-11 00:21:00,
2013-07-10 19:26:00,77.1,55.9,30.05,North,0,0.0,0.0,48,0.00,,,0.00,vanprod-2.3,2013-07-11 00:26:00,
2013-07-10 19:31:00,77.1,54.7,30.04,North,0,0.0,0.0,46,0.00,,,0.00,vanprod-2.3,2013-07-11 00:31:00,
2013-07-10 19:36:00,77.2,54.8,30.04,North,0,0.0,0.0,46,0.00,,,0.00,vanprod-2.3,2013-07-11 00:36:00,
2013-07-10 19:41:00,77.2,55.4,30.04,North,0,0.0,0.0,47,0.00,,,0.00,vanprod-2.3,2013-07-11 00:41:00,
2013-07-10 19:46:00,77.2,54.8,30.04,North,0,0.0,0.0,46,0.00,,,0.00,vanprod-2.3,2013-07-11 00:46:00,
2013-07-10 19:51:00,77.4,56.2,30.04,North,0,0.0,0.0,48,0.00,,,0.00,vanprod-2.3,2013-07-11 00:51:00,
2013-07-10 19:56:00,77.6,56.4,30.04,North,0,0.0,0.0,48,0.00,,,0.00,vanprod-2.3,2013-07-11 00:56:00,
2013-07-10 20:01:00,78.0,56.7,30.04,North,0,0.0,0.0,48,0.00,,,0.00,vanprod-2.3,2013-07-11 01:01:00,
2013-07-10 20:06:00,78.1,58.5,30.04,North,0,0.0,0.0,51,0.00,,,0.00,vanprod-2.3,2013-07-11 01:06:00,
2013-07-10 20:11:00,77.8,59.3,30.04,North,0,0.0,0.0,53,0.00,,,0.00,vanprod-2.3,2013-07-11 01:11:00,
2013-07-10 20:16:00,77.4,58.9,30.04,North,0,0.0,0.0,53,0.00,,,0.00,vanprod-2.3,2013-07-11 01:16:00,
2013-07-10 20:21:00,77.1,59.2,30.04,North,0,0.0,0.0,54,0.00,,,0.00,vanprod-2.3,2013-07-11 01:21:00,
2013-07-10 20:26:00,76.5,59.1,30.04,North,0,0.0,0.0,55,0.00,,,0.00,vanprod-2.3,2013-07-11 01:26:00,
2013-07-10 20:31:00,76.3,60.0,30.04,North,0,0.0,0.0,57,0.00,,,0.00,vanprod-2.3,2013-07-11 01:31:00,
2013-07-10 20:36:00,75.8,60.9,30.04,North,0,0.0,0.0,60,0.00,,,0.00,vanprod-2.3,2013-07-11 01:36:00,
2013-07-10 20:41:00,75.5,60.2,30.04,North,0,0.0,0.0,59,0.00,,,0.00,vanprod-2.3,2013-07-11 01:41:00,
2013-07-10 20:46:00,75.1,61.2,30.04,North,0,0.0,0.0,62,0.00,,,0.00,vanprod-2.3,2013-07-11 01:46:00,
2013-07-10 20:51:00,74.6,60.3,30.04,North,0,0.0,0.0,61,0.00,,,0.00,vanprod-2.3,2013-07-11 01:51:00,
2013-07-10 20:56:00,74.1,59.8,30.04,North,0,0.0,0.0,61,0.00,,,0.00,vanprod-2.3,2013-07-11 01:56:00,
2013-07-10 21:01:00,73.5,59.2,30.05,North,0,0.0,0.0,61,0.00,,,0.00,vanprod-2.3,2013-07-11 02:01:00,
2013-07-10 21:06:00,73.2,60.3,30.05,North,0,0.0,0.0,64,0.00,,,0.00,vanprod-2.3,2013-07-11 02:06:00,
2013-07-10 21:11:00,72.8,60.4,30.05,North,0,0.0,0.0,65,0.00,,,0.00,vanprod-2.3,2013-07-11 02:11:00,
2013-07-10 21:16:00,72.3,59.0,30.05,North,0,0.0,0.0,63,0.00,,,0.00,vanprod-2.3,2013-07-11 02:16:00,
2013-07-10 21:21:00,71.8,59.4,30.05,North,0,0.0,0.0,65,0.00,,,0.00,vanprod-2.3,2013-07-11 02:21:00,
2013-07-10 21:26:00,71.5,59.1,30.06,North,0,0.0,0.0,65,0.00,,,0.00,vanprod-2.3,2013-07-11 02:26:00,
2013-07-10 21:31:00,71.0,59.5,30.06,North,0,0.0,0.0,67,0.00,,,0.00,vanprod-2.3,2013-07-11 02:31:00,
2013-07-10 21:36:00,70.4,59.3,30.06,North,0,0.0,0.0,68,0.00,,,0.00,vanprod-2.3,2013-07-11 02:36:00,
2013-07-10 21:41:00,70.3,59.7,30.06,North,0,0.0,0.0,69,0.00,,,0.00,vanprod-2.3,2013-07-11 02:41:00,
2013-07-10 21:46:00,69.9,59.3,30.06,North,0,0.0,0.0,69,0.00,,,0.00,vanprod-2.3,2013-07-11 02:46:00,
2013-07-10 21:51:00,69.4,60.0,30.06,North,0,0.0,0.0,72,0.00,,,0.00,vanprod-2.3,2013-07-11 02:51:00,
2013-07-10 21:56:00,69.1,60.1,30.06,North,0,0.0,0.0,73,0.00,,,0.00,vanprod-2.3,2013-07-11 02:56:00,
2013-07-10 22:01:00,68.8,59.8,30.06,North,0,0.0,0.0,73,0.00,,,0.00,vanprod-2.3,2013-07-11 03:01:00,
2013-07-10 22:06:00,68.6,59.6,30.06,North,0,0.0,0.0,73,0.00,,,0.00,vanprod-2.3,2013-07-11 03:06:00,
2013-07-10 22:11:00,68.4,60.5,30.07,North,0,0.0,0.0,76,0.00,,,0.00,vanprod-2.3,2013-07-11 03:11:00,
2013-07-10 22:16:00,68.1,60.6,30.07,North,0,0.0,0.0,77,0.00,,,0.00,vanprod-2.3,2013-07-11 03:16:00,
2013-07-10 22:21:00,67.9,60.4,30.07,North,0,0.0,0.0,77,0.00,,,0.00,vanprod-2.3,2013-07-11 03:21:00,
2013-07-10 22:26:00,67.8,60.3,30.07,North,0,0.0,0.0,77,0.00,,,0.00,vanprod-2.3,2013-07-11 03:26:00,
2013-07-10 22:31:00,67.6,60.1,30.07,North,0,0.0,0.0,77,0.00,,,0.00,vanprod-2.3,2013-07-11 03:31:00,
2013-07-10 22:36:00,67.3,60.6,30.07,North,0,0.0,0.0,79,0.00,,,0.00,vanprod-2.3,2013-07-11 03:36:00,
2013-07-10 22:41:00,67.1,60.4,30.07,North,0,0.0,0.0,79,0.00,,,0.00,vanprod-2.3,2013-07-11 03:41:00,
2013-07-10 22:46:00,66.8,59.7,30.07,North,0,0.0,0.0,78,0.00,,,0.00,vanprod-2.3,2013-07-11 03:46:00,
2013-07-10 22:51:00,66.6,59.9,30.07,North,0,0.0,0.0,79,0.00,,,0.00,vanprod-2.3,2013-07-11 03:51:00,
2013-07-10 22:56:00,66.6,59.9,30.07,North,0,0.0,0.0,79,0.00,,,0.00,vanprod-2.3,2013-07-11 03:56:00,
2013-07-10 23:01:00,66.6,59.9,30.07,North,0,0.0,0.0,79,0.00,,,0.00,vanprod-2.3,2013-07-11 04:01:00,
2013-07-10 23:06:00,66.4,60.1,30.07,North,0,0.0,0.0,80,0.00,,,0.00,vanprod-2.3,2013-07-11 04:06:00,
2013-07-10 23:11:00,66.3,60.3,30.07,North,0,0.0,0.0,81,0.00,,,0.00,vanprod-2.3,2013-07-11 04:11:00,
2013-07-10 23:16:00,66.1,59.8,30.07,North,0,0.0,0.0,80,0.00,,,0.00,vanprod-2.3,2013-07-11 04:16:00,
2013-07-10 23:21:00,66.1,60.1,30.07,North,0,0.0,0.0,81,0.00,,,0.00,vanprod-2.3,2013-07-11 04:21:00,
2013-07-10 23:26:00,65.8,59.8,30.07,North,0,0.0,0.0,81,0.00,,,0.00,vanprod-2.3,2013-07-11 04:26:00,
2013-07-10 23:31:00,65.6,59.6,30.08,North,0,0.0,0.0,81,0.00,,,0.00,vanprod-2.3,2013-07-11 04:31:00,
2013-07-10 23:36:00,65.5,59.9,30.07,North,0,0.0,0.0,82,0.00,,,0.00,vanprod-2.3,2013-07-11 04:36:00,
2013-07-10 23:41:00,65.3,60.0,30.07,North,0,0.0,0.0,83,0.00,,,0.00,vanprod-2.3,2013-07-11 04:41:00,
2013-07-10 23:46:00,65.1,59.8,30.07,North,0,0.0,0.0,83,0.00,,,0.00,vanprod-2.3,2013-07-11 04:46:00,
2013-07-10 23:51:00,65.0,60.1,30.07,North,0,0.0,0.0,84,0.00,,,0.00,vanprod-2.3,2013-07-11 04:51:00,
2013-07-10 23:56:00,64.8,59.9,30.08,North,0,0.0,0.0,84,0.00,,,0.00,vanprod-2.3,2013-07-11 04:56:00,